createdAt,value
2022-11-13T00:01:24.091Z,18.61
2022-11-13T00:04:11.793Z,18.56
2022-11-13T00:07:00.006Z,18.52
2022-11-13T00:09:47.637Z,18.43
2022-11-13T00:12:35.312Z,18.48
2022-11-13T00:15:23.067Z,18.53
2022-11-13T00:18:10.791Z,18.52
2022-11-13T00:20:59.977Z,18.47
2022-11-13T00:23:47.501Z,18.42
2022-11-13T00:26:34.873Z,18.42
2022-11-13T00:29:22.659Z,18.43
2022-11-13T00:32:10.191Z,18.41
2022-11-13T00:34:57.631Z,18.33
2022-11-13T00:37:44.530Z,18.24
2022-11-13T00:40:32.601Z,18.29
2022-11-13T00:43:20.306Z,18.25
2022-11-13T00:46:09.051Z,18.21
2022-11-13T00:48:56.755Z,18.24
2022-11-13T00:51:44.714Z,18.24
2022-11-13T00:54:32.036Z,18.28
2022-11-13T00:57:19.734Z,18.25
2022-11-13T01:00:08.026Z,18.22
2022-11-13T01:02:57.368Z,18.23
2022-11-13T01:05:49.393Z,18.24
2022-11-13T01:08:38.003Z,18.19
2022-11-13T01:11:30.803Z,18.27
2022-11-13T01:14:20.413Z,18.26
2022-11-13T01:17:08.227Z,18.27
2022-11-13T01:19:56.498Z,18.27
2022-11-13T01:22:44.702Z,18.25
2022-11-13T01:25:33.346Z,18.29
2022-11-13T01:28:20.914Z,18.25
2022-11-13T01:31:11.260Z,18.36
2022-11-13T01:33:59.744Z,18.31
2022-11-13T01:36:48.508Z,18.33
2022-11-13T01:39:36.710Z,18.30
2022-11-13T01:42:24.363Z,18.37
2022-11-13T01:45:49.424Z,18.59
2022-11-13T01:48:44.700Z,18.56
2022-11-13T01:52:00.338Z,18.68
2022-11-13T01:55:13.215Z,18.71
2022-11-13T01:58:01.897Z,18.61
2022-11-13T02:00:50.366Z,18.61
2022-11-13T02:03:38.542Z,18.53
2022-11-13T02:06:30.140Z,18.54
2022-11-13T02:09:21.815Z,18.53
2022-11-13T02:12:13.871Z,18.54
2022-11-13T02:15:04.441Z,18.37
2022-11-13T02:18:01.090Z,18.55
2022-11-13T02:21:07.461Z,18.53
2022-11-13T02:24:18.387Z,18.65
2022-11-13T02:27:10.228Z,18.74
2022-11-13T02:29:58.573Z,18.79
2022-11-13T02:32:52.177Z,18.92
2022-11-13T02:35:40.949Z,18.70
2022-11-13T02:38:29.438Z,18.92
2022-11-13T02:41:17.803Z,19.09
2022-11-13T02:44:07.854Z,19.20
2022-11-13T02:46:55.944Z,19.21
2022-11-13T02:49:43.755Z,19.25
2022-11-13T02:52:32.828Z,19.30
2022-11-13T02:55:20.949Z,19.23
2022-11-13T02:58:09.156Z,19.33
2022-11-13T03:00:57.389Z,19.40
2022-11-13T03:03:57.504Z,19.38
2022-11-13T03:06:46.066Z,19.54
2022-11-13T03:09:34.633Z,19.54
2022-11-13T03:12:22.832Z,19.67
2022-11-13T03:15:12.285Z,19.69
2022-11-13T03:18:03.733Z,19.85
2022-11-13T03:20:55.433Z,20.04
2022-11-13T03:23:46.575Z,20.12
2022-11-13T03:26:35.248Z,20.14
2022-11-13T03:29:23.170Z,20.36
2022-11-13T03:32:11.244Z,20.38
2022-11-13T03:34:59.474Z,20.15
2022-11-13T03:37:48.239Z,20.47
2022-11-13T03:40:36.504Z,20.67
2022-11-13T03:43:25.667Z,20.64
2022-11-13T03:46:13.865Z,20.80
2022-11-13T03:49:02.217Z,20.83
2022-11-13T03:51:50.586Z,21.00
2022-11-13T03:54:39.062Z,20.99
2022-11-13T03:57:26.830Z,20.81
2022-11-13T04:00:16.673Z,20.87
2022-11-13T04:03:05.222Z,21.28
2022-11-13T04:05:56.338Z,21.42
2022-11-13T04:08:44.151Z,21.43
2022-11-13T04:11:32.996Z,21.56
2022-11-13T04:14:20.728Z,21.69
2022-11-13T04:17:09.172Z,21.56
2022-11-13T04:19:56.834Z,21.70
2022-11-13T04:22:44.923Z,21.84
2022-11-13T04:25:32.704Z,22.04
2022-11-13T04:28:21.545Z,22.07
2022-11-13T04:31:09.025Z,22.15
2022-11-13T04:33:56.978Z,22.30
2022-11-13T04:36:45.136Z,22.42
2022-11-13T04:39:33.267Z,22.56
2022-11-13T04:42:39.091Z,22.69
2022-11-13T04:45:30.561Z,22.79
2022-11-13T04:48:17.887Z,22.77
2022-11-13T04:51:06.720Z,22.85
2022-11-13T04:53:54.485Z,23.12
2022-11-13T04:56:42.446Z,22.97
2022-11-13T04:59:30.047Z,23.17
2022-11-13T05:02:17.779Z,23.34
2022-11-13T05:05:06.136Z,23.47
2022-11-13T05:07:55.233Z,23.58
2022-11-13T05:10:43.284Z,23.58
2022-11-13T05:13:38.587Z,23.93
2022-11-13T05:16:26.612Z,23.77
2022-11-13T05:19:14.802Z,24.15
2022-11-13T05:22:03.976Z,24.19
2022-11-13T05:24:51.971Z,24.22
2022-11-13T05:27:39.887Z,24.34
2022-11-13T05:30:28.926Z,24.48
2022-11-13T05:33:17.048Z,24.54
2022-11-13T05:36:14.157Z,24.69
2022-11-13T05:39:01.697Z,24.66
2022-11-13T05:41:49.776Z,24.43
2022-11-13T05:44:37.419Z,24.64
2022-11-13T05:47:24.989Z,24.51
2022-11-13T05:50:12.468Z,24.84
2022-11-13T05:52:59.808Z,24.93
2022-11-13T05:55:47.282Z,24.93
2022-11-13T05:58:35.504Z,24.88
2022-11-13T06:01:28.654Z,25.07
2022-11-13T06:04:16.114Z,25.09
2022-11-13T06:07:03.736Z,25.21
2022-11-13T06:09:52.051Z,25.24
2022-11-13T06:12:39.447Z,25.17
2022-11-13T06:15:27.768Z,25.37
2022-11-13T06:18:15.302Z,25.44
2022-11-13T06:21:05.161Z,25.62
2022-11-13T06:23:52.636Z,25.55
2022-11-13T06:26:40.877Z,25.72
2022-11-13T06:29:28.632Z,25.68
2022-11-13T06:32:15.933Z,25.86
2022-11-13T06:35:05.436Z,25.85
2022-11-13T06:37:52.591Z,25.89
2022-11-13T06:40:41.305Z,25.97
2022-11-13T06:43:29.393Z,25.99
2022-11-13T06:46:20.811Z,26.08
2022-11-13T06:49:08.052Z,26.03
2022-11-13T06:51:55.716Z,26.17
2022-11-13T06:54:42.813Z,26.27
2022-11-13T06:57:30.340Z,26.22
2022-11-13T07:00:18.479Z,26.34
2022-11-13T07:03:07.923Z,26.35
2022-11-13T07:05:54.934Z,26.43
2022-11-13T07:08:44.425Z,26.46
2022-11-13T07:11:31.500Z,26.45
2022-11-13T07:14:19.611Z,26.55
2022-11-13T07:17:10.684Z,26.52
2022-11-13T07:19:58.280Z,26.55
2022-11-13T07:22:45.281Z,26.85
2022-11-13T07:25:34.028Z,26.87
2022-11-13T07:28:21.271Z,26.90
2022-11-13T07:31:09.534Z,26.80
2022-11-13T07:33:56.709Z,26.94
2022-11-13T07:36:44.456Z,26.95
2022-11-13T07:39:31.650Z,26.91
2022-11-13T07:42:19.214Z,26.99
2022-11-13T07:45:09.857Z,27.00
2022-11-13T07:48:02.498Z,27.12
2022-11-13T07:50:50.545Z,27.06
2022-11-13T07:53:40.204Z,27.06
2022-11-13T07:56:28.252Z,27.04
2022-11-13T07:59:16.393Z,27.20
2022-11-13T08:02:04.054Z,27.17
2022-11-13T08:04:54.220Z,27.18
2022-11-13T08:07:41.588Z,27.21
2022-11-13T08:10:31.179Z,27.20
2022-11-13T08:13:18.875Z,27.19
2022-11-13T08:16:09.704Z,27.16
2022-11-13T08:18:58.754Z,27.34
2022-11-13T08:21:48.138Z,27.19
2022-11-13T08:24:38.347Z,27.31
2022-11-13T08:27:27.018Z,27.22
2022-11-13T08:30:20.603Z,27.43
2022-11-13T08:33:09.584Z,27.39
2022-11-13T08:36:00.237Z,27.42
2022-11-13T08:38:50.283Z,27.55
2022-11-13T08:41:41.062Z,27.48
2022-11-13T08:44:30.565Z,27.44
2022-11-13T08:47:18.326Z,27.42
2022-11-13T08:50:09.345Z,27.62
2022-11-13T08:52:58.683Z,27.53
2022-11-13T08:55:48.158Z,27.55
2022-11-13T08:58:35.691Z,27.60
2022-11-13T09:01:24.135Z,27.62
2022-11-13T09:04:12.918Z,27.54
2022-11-13T09:07:01.587Z,27.60
2022-11-13T09:09:53.752Z,27.74
2022-11-13T09:12:41.430Z,27.75
2022-11-13T09:15:30.652Z,27.63
2022-11-13T09:18:19.972Z,27.66
2022-11-13T09:21:12.264Z,27.95
2022-11-13T09:24:00.823Z,27.93
2022-11-13T09:26:50.484Z,27.82
2022-11-13T09:29:40.561Z,27.79
2022-11-13T09:32:28.340Z,27.62
2022-11-13T09:35:15.855Z,27.55
2022-11-13T09:38:18.092Z,27.76
2022-11-13T09:41:26.015Z,27.69
2022-11-13T09:44:40.371Z,27.51
2022-11-13T09:47:36.646Z,27.48
2022-11-13T09:50:30.881Z,27.53
2022-11-13T09:53:19.016Z,27.50
2022-11-13T09:56:29.585Z,27.66
2022-11-13T09:59:35.501Z,27.55
2022-11-13T10:02:31.259Z,27.58
2022-11-13T10:05:46.111Z,27.49
2022-11-13T10:08:47.961Z,27.43
2022-11-13T10:11:45.684Z,27.44
2022-11-13T10:14:52.573Z,27.43
2022-11-13T10:17:49.029Z,27.29
2022-11-13T10:20:41.826Z,27.29
2022-11-13T10:23:41.139Z,27.30
2022-11-13T10:26:30.969Z,27.27
2022-11-13T10:29:22.254Z,27.14
2022-11-13T10:32:33.654Z,27.21
2022-11-13T10:35:51.944Z,27.30
2022-11-13T10:39:01.157Z,27.29
2022-11-13T10:41:55.709Z,27.15
2022-11-13T10:44:56.390Z,27.06
2022-11-13T10:48:07.480Z,27.14
2022-11-13T10:51:23.540Z,27.12
2022-11-13T10:54:29.491Z,26.99
2022-11-13T10:57:38.594Z,27.02
2022-11-13T11:00:33.987Z,26.88
2022-11-13T11:03:24.929Z,26.79
2022-11-13T11:06:15.230Z,26.76
2022-11-13T11:09:29.139Z,26.96
2022-11-13T11:12:29.040Z,26.76
2022-11-13T11:15:28.576Z,26.80
2022-11-13T11:18:48.828Z,26.65
2022-11-13T11:21:42.037Z,26.53
2022-11-13T11:24:38.207Z,26.59
2022-11-13T11:27:50.942Z,26.50
2022-11-13T11:31:22.817Z,26.50
2022-11-13T11:34:20.497Z,26.35
2022-11-13T11:37:17.895Z,26.30
2022-11-13T11:40:21.505Z,26.34
2022-11-13T11:43:18.279Z,26.20
2022-11-13T11:46:05.890Z,26.04
2022-11-13T11:48:54.073Z,26.02
2022-11-13T11:52:25.726Z,26.06
2022-11-13T11:55:51.427Z,25.84
2022-11-13T11:59:01.362Z,25.83
2022-11-13T12:02:12.638Z,25.72
2022-11-13T12:05:30.894Z,25.57
2022-11-13T12:08:52.454Z,25.52
2022-11-13T12:11:58.339Z,25.40
2022-11-13T12:14:50.899Z,25.25
2022-11-13T12:17:47.704Z,25.26
2022-11-13T12:21:01.705Z,25.24
2022-11-13T12:24:24.644Z,25.20
2022-11-13T12:27:30.081Z,24.95
2022-11-13T12:30:21.483Z,24.94
2022-11-13T12:33:37.722Z,24.90
2022-11-13T12:36:26.324Z,24.79
2022-11-13T12:39:31.701Z,24.85
2022-11-13T12:42:31.050Z,24.69
2022-11-13T12:45:39.831Z,24.78
2022-11-13T12:48:36.804Z,24.70
2022-11-13T12:51:24.524Z,24.55
2022-11-13T12:54:13.550Z,24.49
2022-11-13T12:57:19.173Z,24.52
2022-11-13T13:00:28.033Z,24.45
2022-11-13T13:03:38.227Z,24.25
2022-11-13T13:07:02.107Z,24.34
2022-11-13T13:10:04.628Z,24.29
2022-11-13T13:13:06.581Z,24.28
2022-11-13T13:16:03.781Z,24.23
2022-11-13T13:18:51.317Z,24.10
2022-11-13T13:21:44.305Z,24.13
2022-11-13T13:24:38.893Z,24.09
2022-11-13T13:27:30.227Z,23.99
2022-11-13T13:30:29.419Z,24.00
2022-11-13T13:33:35.061Z,23.84
2022-11-13T13:36:51.087Z,23.87
2022-11-13T13:39:58.905Z,23.72
2022-11-13T13:43:13.679Z,23.68
2022-11-13T13:46:12.697Z,23.58
2022-11-13T13:49:10.640Z,23.42
2022-11-13T13:51:59.481Z,23.34
2022-11-13T13:54:47.915Z,23.26
2022-11-13T13:57:41.435Z,23.25
2022-11-13T14:00:29.351Z,23.20
2022-11-13T14:03:21.652Z,23.22
2022-11-13T14:06:24.665Z,23.25
2022-11-13T14:09:18.201Z,23.16
2022-11-13T14:12:10.095Z,23.16
2022-11-13T14:14:57.808Z,23.11
2022-11-13T14:17:45.290Z,23.11
2022-11-13T14:20:41.032Z,23.18
2022-11-13T14:23:49.948Z,23.19
2022-11-13T14:26:37.625Z,23.03
2022-11-13T14:29:41.102Z,23.11
2022-11-13T14:32:32.633Z,22.99
2022-11-13T14:35:27.953Z,23.04
2022-11-13T14:38:27.701Z,23.03
2022-11-13T14:41:30.518Z,22.99
2022-11-13T14:44:32.398Z,22.94
2022-11-13T14:47:29.733Z,22.93
2022-11-13T14:50:24.886Z,22.84
2022-11-13T14:53:12.987Z,22.82
2022-11-13T14:56:06.263Z,22.74
2022-11-13T14:58:53.842Z,22.67
2022-11-13T15:01:41.492Z,22.67
2022-11-13T15:04:29.651Z,22.65
2022-11-13T15:07:32.057Z,22.77
2022-11-13T15:10:22.067Z,22.70
2022-11-13T15:13:18.081Z,22.66
2022-11-13T15:16:05.599Z,22.54
2022-11-13T15:19:05.522Z,22.64
2022-11-13T15:22:25.240Z,22.54
2022-11-13T15:25:00.873Z,22.53
2022-11-13T15:27:48.424Z,22.47
2022-11-13T15:30:36.921Z,22.47
2022-11-13T15:33:24.893Z,22.44
2022-11-13T15:36:12.404Z,22.42
2022-11-13T15:39:02.370Z,22.36
2022-11-13T15:41:54.631Z,22.37
2022-11-13T15:44:42.097Z,22.34
2022-11-13T15:47:35.994Z,22.37
2022-11-13T15:50:23.697Z,22.28
2022-11-13T15:53:15.754Z,22.28
2022-11-13T15:56:06.109Z,22.13
2022-11-13T15:58:53.709Z,22.15
2022-11-13T16:01:42.112Z,22.10
2022-11-13T16:04:50.470Z,22.03
2022-11-13T16:07:41.140Z,22.04
2022-11-13T16:10:30.054Z,22.04
2022-11-13T16:13:17.463Z,21.95
2022-11-13T16:16:05.842Z,21.99
2022-11-13T16:18:58.831Z,22.02
2022-11-13T16:21:47.703Z,21.97
2022-11-13T16:24:35.131Z,21.93
2022-11-13T16:27:33.011Z,22.07
2022-11-13T16:30:24.190Z,22.06
2022-11-13T16:33:12.066Z,22.01
2022-11-13T16:35:59.536Z,22.09
2022-11-13T16:38:47.820Z,22.00
2022-11-13T16:41:34.968Z,21.96
2022-11-13T16:44:22.806Z,21.94
2022-11-13T16:47:25.319Z,22.13
2022-11-13T16:50:28.098Z,22.10
2022-11-13T16:53:15.343Z,21.88
2022-11-13T16:56:03.320Z,21.90
2022-11-13T16:58:50.663Z,21.85
2022-11-13T17:01:38.278Z,21.80
2022-11-13T17:04:25.633Z,21.85
2022-11-13T17:07:17.794Z,21.93
2022-11-13T17:13:14.215Z,21.94
2022-11-13T17:16:03.098Z,21.92
2022-11-13T17:18:51.658Z,21.92
2022-11-13T17:21:43.744Z,21.93
2022-11-13T17:24:31.651Z,21.98
2022-11-13T17:27:19.819Z,21.93
2022-11-13T17:30:07.630Z,21.95
2022-11-13T17:32:55.282Z,22.00
2022-11-13T17:35:42.915Z,22.05
2022-11-13T17:38:30.759Z,22.04
2022-11-13T17:41:18.921Z,22.10
2022-11-13T17:44:07.112Z,22.11
2022-11-13T17:46:54.349Z,22.15
2022-11-13T17:49:42.263Z,22.18
2022-11-13T17:52:29.702Z,22.14
2022-11-13T17:55:18.655Z,22.19
2022-11-13T17:58:06.016Z,22.19
2022-11-13T18:00:54.465Z,22.15
2022-11-13T18:03:42.171Z,22.02
2022-11-13T18:06:30.091Z,22.04
2022-11-13T18:09:17.315Z,22.10
2022-11-13T18:12:05.160Z,22.01
2022-11-13T18:14:56.220Z,22.02
2022-11-13T18:17:43.959Z,22.12
2022-11-13T18:20:31.409Z,22.01
2022-11-13T18:23:19.673Z,22.01
2022-11-13T18:26:16.613Z,22.22
2022-11-13T18:29:05.045Z,22.19
2022-11-13T18:31:52.340Z,22.22
2022-11-13T18:34:40.221Z,22.14
2022-11-13T18:37:27.745Z,22.19
2022-11-13T18:40:15.483Z,22.31
2022-11-13T18:43:03.030Z,22.34
2022-11-13T18:45:58.555Z,22.47
2022-11-13T18:48:47.032Z,22.35
2022-11-13T18:51:39.636Z,22.33
2022-11-13T18:54:27.781Z,22.28
2022-11-13T18:57:15.553Z,22.22
2022-11-13T19:00:02.991Z,22.51
2022-11-13T19:02:52.739Z,22.56
2022-11-13T19:05:45.215Z,22.44
2022-11-13T19:08:36.001Z,22.13
2022-11-13T19:11:27.248Z,22.31
2022-11-13T19:14:17.121Z,22.25
2022-11-13T19:17:04.635Z,21.79
2022-11-13T19:19:52.315Z,21.84
2022-11-13T19:22:39.844Z,21.75
2022-11-13T19:25:27.698Z,21.69
2022-11-13T19:28:15.084Z,21.87
2022-11-13T19:31:07.561Z,21.71
2022-11-13T19:34:03.731Z,21.84
2022-11-13T19:36:52.695Z,21.52
2022-11-13T19:39:40.345Z,21.63
2022-11-13T19:42:27.865Z,21.48
2022-11-13T19:45:15.485Z,21.33
2022-11-13T19:48:02.438Z,21.36
2022-11-13T19:50:49.477Z,21.18
2022-11-13T19:53:38.813Z,21.23
2022-11-13T19:56:29.306Z,21.14
2022-11-13T19:59:16.780Z,20.94
2022-11-13T20:02:04.377Z,20.86
2022-11-13T20:04:51.723Z,20.64
2022-11-13T20:07:39.269Z,20.55
2022-11-13T20:10:27.550Z,20.48
2022-11-13T20:13:15.093Z,20.54
2022-11-13T20:16:02.829Z,20.47
2022-11-13T20:18:50.709Z,20.61
2022-11-13T20:21:38.200Z,20.73
2022-11-13T20:24:25.815Z,20.74
2022-11-13T20:27:14.101Z,20.49
2022-11-13T20:30:01.373Z,20.61
2022-11-13T20:32:49.223Z,20.57
2022-11-13T20:35:36.837Z,20.61
2022-11-13T20:38:24.155Z,20.62
2022-11-13T20:41:12.917Z,20.80
2022-11-13T20:44:03.064Z,20.75
2022-11-13T20:46:50.405Z,20.92
2022-11-13T20:49:38.271Z,20.94
2022-11-13T20:52:25.775Z,21.05
2022-11-13T20:55:13.959Z,21.02
2022-11-13T20:58:01.816Z,20.92
2022-11-13T21:00:49.391Z,20.92
2022-11-13T21:03:41.363Z,20.87
2022-11-13T21:06:29.481Z,20.81
2022-11-13T21:09:17.091Z,20.59
2022-11-13T21:12:04.858Z,20.66
2022-11-13T21:14:52.998Z,20.40
2022-11-13T21:17:41.195Z,20.17
2022-11-13T21:20:28.388Z,20.21
2022-11-13T21:23:16.050Z,20.35
2022-11-13T21:26:05.338Z,20.33
2022-11-13T21:28:59.484Z,20.38
2022-11-13T21:31:47.508Z,20.35
2022-11-13T21:34:35.097Z,20.27
2022-11-13T21:37:22.926Z,20.56
2022-11-13T21:40:13.212Z,20.28
2022-11-13T21:43:00.809Z,20.37
2022-11-13T21:45:48.347Z,20.32
2022-11-13T21:48:36.001Z,20.29
2022-11-13T21:51:23.741Z,20.02
2022-11-13T21:54:11.770Z,20.11
2022-11-13T21:56:59.537Z,20.19
2022-11-13T21:59:46.884Z,20.17
2022-11-13T22:02:34.528Z,20.38
2022-11-13T22:05:21.924Z,20.29
2022-11-13T22:08:09.943Z,20.51
2022-11-13T22:10:57.099Z,20.44
2022-11-13T22:13:45.681Z,20.55
2022-11-13T22:16:36.496Z,20.40
2022-11-13T22:19:27.665Z,20.38
2022-11-13T22:22:16.715Z,20.44
2022-11-13T22:25:04.278Z,20.41
2022-11-13T22:27:51.513Z,20.50
2022-11-13T22:30:39.831Z,20.50
2022-11-13T22:33:32.493Z,20.67
2022-11-13T22:36:22.615Z,20.54
2022-11-13T22:39:10.010Z,20.61
2022-11-13T22:41:57.521Z,20.56
2022-11-13T22:44:55.469Z,20.58
2022-11-13T22:47:43.828Z,20.37
2022-11-13T22:50:31.515Z,20.38
2022-11-13T22:53:19.070Z,20.27
2022-11-13T22:56:12.633Z,20.32
2022-11-13T22:59:02.378Z,20.20
2022-11-13T23:01:49.923Z,20.20
2022-11-13T23:04:37.807Z,20.16
2022-11-13T23:07:25.382Z,19.97
2022-11-13T23:10:13.278Z,20.02
2022-11-13T23:13:00.522Z,20.04
2022-11-13T23:15:48.342Z,20.13
2022-11-13T23:18:36.115Z,20.14
2022-11-13T23:21:26.467Z,20.01
2022-11-13T23:24:14.376Z,20.10
2022-11-13T23:27:03.495Z,20.19
2022-11-13T23:29:51.020Z,20.21
2022-11-13T23:32:38.573Z,20.11
2022-11-13T23:35:25.785Z,20.21
2022-11-13T23:38:14.022Z,20.22
2022-11-13T23:41:02.252Z,20.28
2022-11-13T23:46:57.696Z,20.18
2022-11-13T23:49:45.324Z,20.13
2022-11-13T23:52:33.188Z,19.98
2022-11-13T23:55:22.400Z,20.02
2022-11-13T23:58:15.179Z,20.04
